createdAt,value
2017-06-21T00:02:06.890Z,13.70
2017-06-21T00:04:35.346Z,13.00
2017-06-21T00:07:04.543Z,15.33
2017-06-21T00:09:33.743Z,14.80
2017-06-21T00:12:02.958Z,13.00
2017-06-21T00:14:32.239Z,14.93
2017-06-21T00:17:01.438Z,13.60
2017-06-21T00:19:30.667Z,14.77
2017-06-21T00:21:59.092Z,14.37
2017-06-21T00:24:27.537Z,15.03
2017-06-21T00:26:55.978Z,15.63
2017-06-21T00:29:24.479Z,13.70
2017-06-21T00:31:53.691Z,14.03
2017-06-21T00:34:22.303Z,14.20
2017-06-21T00:36:50.731Z,15.43
2017-06-21T00:39:19.230Z,15.77
2017-06-21T00:41:48.447Z,17.33
2017-06-21T00:44:16.871Z,15.03
2017-06-21T00:46:45.304Z,14.90
2017-06-21T00:49:13.754Z,15.00
2017-06-21T00:51:42.207Z,14.60
2017-06-21T00:54:10.695Z,14.53
2017-06-21T00:56:39.119Z,15.30
2017-06-21T00:59:08.387Z,14.87
2017-06-21T01:01:36.818Z,16.40
2017-06-21T01:04:05.282Z,16.20
2017-06-21T01:06:34.476Z,15.57
2017-06-21T01:09:03.443Z,16.80
2017-06-21T01:11:31.882Z,16.60
2017-06-21T01:14:00.305Z,16.17
2017-06-21T01:16:28.751Z,15.70
2017-06-21T01:18:57.192Z,17.57
2017-06-21T01:21:26.608Z,16.60
2017-06-21T01:23:55.866Z,16.30
2017-06-21T01:26:24.311Z,17.10
2017-06-21T01:28:52.738Z,16.20
2017-06-21T01:31:20.827Z,17.17
2017-06-21T01:33:49.255Z,16.03
2017-06-21T01:36:17.699Z,17.30
2017-06-21T01:38:46.903Z,17.50
2017-06-21T01:41:16.111Z,17.53
2017-06-21T01:43:44.576Z,17.10
2017-06-21T01:46:13.786Z,17.57
2017-06-21T01:48:42.335Z,18.50
2017-06-21T01:51:10.769Z,19.10
2017-06-21T01:53:39.302Z,16.40
2017-06-21T01:56:07.385Z,18.30
2017-06-21T01:58:35.903Z,18.60
2017-06-21T02:01:04.344Z,18.20
2017-06-21T02:03:32.962Z,15.50
2017-06-21T02:06:02.175Z,15.87
2017-06-21T02:08:30.603Z,16.30
2017-06-21T02:10:59.051Z,17.00
2017-06-21T02:13:27.490Z,16.60
2017-06-21T02:15:56.642Z,18.03
2017-06-21T02:18:25.071Z,18.10
2017-06-21T02:20:54.291Z,17.27
2017-06-21T02:23:22.718Z,17.47
2017-06-21T02:25:51.142Z,18.00
2017-06-21T02:28:19.589Z,17.97
2017-06-21T02:30:48.244Z,17.23
2017-06-21T02:33:16.908Z,17.67
2017-06-21T02:35:45.354Z,16.30
2017-06-21T02:38:13.858Z,19.13
2017-06-21T02:40:43.080Z,17.07
2017-06-21T02:43:11.505Z,17.40
2017-06-21T02:45:39.931Z,18.30
2017-06-21T02:48:08.398Z,18.00
2017-06-21T02:50:37.683Z,16.40
2017-06-21T02:53:06.303Z,16.70
2017-06-21T02:55:34.735Z,18.23
2017-06-21T02:58:03.179Z,15.90
2017-06-21T03:00:31.706Z,19.23
2017-06-21T03:03:00.196Z,18.17
2017-06-21T03:05:28.639Z,17.93
2017-06-21T03:07:57.088Z,19.37
2017-06-21T03:10:25.542Z,18.13
2017-06-21T03:12:53.988Z,17.70
2017-06-21T03:15:31.751Z,17.57
2017-06-21T03:18:00.196Z,17.43
2017-06-21T03:20:28.627Z,17.40
2017-06-21T03:22:57.075Z,17.03
2017-06-21T03:25:25.527Z,16.97
2017-06-21T03:27:53.962Z,18.93
2017-06-21T03:30:22.380Z,17.47
2017-06-21T03:32:50.833Z,18.13
2017-06-21T03:35:19.260Z,18.20
2017-06-21T03:37:47.720Z,18.30
2017-06-21T03:40:16.158Z,17.30
2017-06-21T03:42:45.377Z,17.73
2017-06-21T03:45:13.823Z,17.07
2017-06-21T03:47:42.262Z,18.03
2017-06-21T03:50:10.761Z,17.37
2017-06-21T03:52:39.190Z,17.67
2017-06-21T03:55:08.384Z,17.67
2017-06-21T03:57:37.606Z,17.60
2017-06-21T04:00:06.051Z,18.50
2017-06-21T04:02:34.499Z,17.00
2017-06-21T04:05:02.930Z,14.77
2017-06-21T04:07:32.266Z,18.07
2017-06-21T04:10:00.714Z,17.37
2017-06-21T04:12:29.845Z,17.23
2017-06-21T04:14:58.279Z,15.83
2017-06-21T04:17:26.711Z,15.70
2017-06-21T04:19:55.191Z,17.40
2017-06-21T04:22:24.395Z,16.30
2017-06-21T04:24:52.840Z,16.60
2017-06-21T04:27:22.247Z,17.73
2017-06-21T04:29:51.454Z,17.40
2017-06-21T04:32:20.778Z,17.37
2017-06-21T04:34:49.232Z,15.57
2017-06-21T04:37:18.420Z,17.50
2017-06-21T04:39:47.660Z,19.63
2017-06-21T04:42:16.098Z,20.20
2017-06-21T04:44:45.303Z,20.07
2017-06-21T04:47:14.508Z,18.90
2017-06-21T04:49:43.703Z,17.13
2017-06-21T04:52:12.895Z,18.17
2017-06-21T04:54:42.103Z,18.27
2017-06-21T04:57:11.298Z,16.93
2017-06-21T04:59:40.526Z,16.37
2017-06-21T05:02:10.422Z,18.40
2017-06-21T05:04:38.855Z,18.27
2017-06-21T05:07:07.315Z,19.13
2017-06-21T05:09:35.775Z,19.43
2017-06-21T05:12:04.223Z,17.73
2017-06-21T05:14:32.666Z,18.50
2017-06-21T05:17:01.117Z,17.00
2017-06-21T05:19:29.599Z,18.00
2017-06-21T05:21:58.106Z,17.90
2017-06-21T05:24:26.601Z,17.60
2017-06-21T05:26:55.030Z,19.20
2017-06-21T05:29:24.320Z,18.27
2017-06-21T05:31:52.754Z,18.60
2017-06-21T05:34:21.207Z,17.70
2017-06-21T05:36:50.534Z,18.37
2017-06-21T05:39:19.099Z,19.83
2017-06-21T05:41:47.606Z,18.23
2017-06-21T05:44:16.055Z,19.10
2017-06-21T05:46:45.276Z,19.10
2017-06-21T05:49:13.706Z,18.70
2017-06-21T05:51:42.222Z,21.10
2017-06-21T05:54:10.686Z,22.00
2017-06-21T05:56:39.894Z,23.07
2017-06-21T05:59:09.042Z,21.27
2017-06-21T06:01:37.463Z,20.03
2017-06-21T06:04:06.814Z,18.60
2017-06-21T06:06:35.227Z,20.33
2017-06-21T06:09:03.443Z,21.30
2017-06-21T06:11:31.982Z,19.30
2017-06-21T06:14:00.419Z,18.07
2017-06-21T06:16:28.865Z,18.90
2017-06-21T06:18:57.298Z,17.50
2017-06-21T06:21:25.736Z,18.10
2017-06-21T06:23:54.970Z,18.83
2017-06-21T06:26:23.443Z,18.67
2017-06-21T06:28:51.866Z,18.23
2017-06-21T06:31:20.399Z,17.93
2017-06-21T06:33:49.015Z,18.13
2017-06-21T06:36:17.448Z,16.90
2017-06-21T06:38:46.798Z,19.93
2017-06-21T06:41:15.320Z,17.87
2017-06-21T06:43:43.769Z,18.10
2017-06-21T06:46:12.192Z,17.80
2017-06-21T06:48:40.640Z,16.80
2017-06-21T06:51:09.076Z,19.37
2017-06-21T06:53:37.507Z,19.50
2017-06-21T06:56:05.968Z,17.40
2017-06-21T06:58:34.382Z,20.87
2017-06-21T07:01:02.831Z,19.17
2017-06-21T07:03:31.293Z,20.70
2017-06-21T07:05:59.751Z,20.33
2017-06-21T07:08:28.283Z,18.00
2017-06-21T07:10:56.747Z,18.57
2017-06-21T07:13:25.211Z,16.43
2017-06-21T07:15:53.642Z,18.67
2017-06-21T07:18:22.083Z,18.37
2017-06-21T07:20:50.538Z,16.83
2017-06-21T07:23:18.975Z,17.17
2017-06-21T07:25:47.220Z,19.13
2017-06-21T07:28:15.655Z,17.77
2017-06-21T07:30:44.137Z,17.90
2017-06-21T07:33:12.590Z,17.53
2017-06-21T07:35:41.080Z,16.73
2017-06-21T07:38:09.510Z,17.67
2017-06-21T07:40:37.954Z,17.50
2017-06-21T07:43:06.403Z,16.50
2017-06-21T07:45:35.048Z,16.93
2017-06-21T07:48:03.559Z,16.57
2017-06-21T07:50:32.111Z,16.53
2017-06-21T07:53:00.706Z,16.80
2017-06-21T07:55:29.215Z,17.83
2017-06-21T07:57:57.642Z,18.70
2017-06-21T08:00:26.091Z,18.13
2017-06-21T08:02:54.642Z,20.73
2017-06-21T08:05:23.091Z,18.63
2017-06-21T08:07:51.550Z,18.83
2017-06-21T08:10:19.979Z,18.50
2017-06-21T08:12:48.424Z,18.70
2017-06-21T08:15:16.907Z,18.73
2017-06-21T08:17:45.336Z,16.50
2017-06-21T08:20:13.787Z,19.73
2017-06-21T08:22:42.218Z,20.73
2017-06-21T08:25:10.847Z,20.40
2017-06-21T08:27:39.291Z,22.27
2017-06-21T08:30:07.749Z,20.53
2017-06-21T08:32:36.196Z,18.90
2017-06-21T08:35:04.796Z,17.60
2017-06-21T08:37:33.232Z,24.40
2017-06-21T08:40:01.665Z,20.67
2017-06-21T08:42:30.148Z,18.13
2017-06-21T08:44:58.703Z,20.23
2017-06-21T08:47:27.151Z,18.23
2017-06-21T08:49:55.603Z,18.93
2017-06-21T08:52:24.051Z,20.10
2017-06-21T08:54:52.526Z,19.33
2017-06-21T08:57:20.951Z,18.47
2017-06-21T08:59:49.399Z,18.27
2017-06-21T09:02:17.829Z,17.50
2017-06-21T09:04:46.258Z,18.20
2017-06-21T09:07:14.709Z,17.67
2017-06-21T09:09:43.172Z,16.60
2017-06-21T09:12:11.618Z,18.60
2017-06-21T09:14:40.048Z,17.60
2017-06-21T09:17:08.503Z,16.03
2017-06-21T09:19:36.937Z,18.10
2017-06-21T09:22:05.387Z,17.20
2017-06-21T09:24:33.891Z,16.27
2017-06-21T09:27:02.339Z,15.07
2017-06-21T09:29:30.803Z,15.77
2017-06-21T09:31:59.359Z,15.53
2017-06-21T09:34:27.789Z,15.53
2017-06-21T09:36:56.239Z,15.23
2017-06-21T09:39:24.682Z,16.73
2017-06-21T09:41:53.145Z,16.60
2017-06-21T09:44:21.575Z,15.93
2017-06-21T09:46:50.011Z,15.40
2017-06-21T09:49:18.465Z,15.77
2017-06-21T09:51:47.582Z,14.77
2017-06-21T09:54:16.032Z,15.13
2017-06-21T09:56:44.463Z,15.13
2017-06-21T09:59:12.967Z,14.30
2017-06-21T10:01:41.224Z,19.17
2017-06-21T10:04:09.652Z,16.20
2017-06-21T10:06:38.110Z,15.13
2017-06-21T10:09:06.610Z,13.50
2017-06-21T10:11:35.179Z,14.53
2017-06-21T10:14:03.720Z,14.70
2017-06-21T10:16:32.152Z,14.57
2017-06-21T10:19:00.610Z,13.17
2017-06-21T10:21:29.106Z,13.30
2017-06-21T10:23:57.615Z,13.37
2017-06-21T10:26:26.042Z,13.53
2017-06-21T10:28:54.483Z,14.83
2017-06-21T10:31:22.940Z,14.03
2017-06-21T10:33:51.367Z,13.07
2017-06-21T10:36:19.883Z,14.23
2017-06-21T10:38:48.312Z,12.83
2017-06-21T10:41:17.691Z,12.43
2017-06-21T10:43:46.142Z,13.47
2017-06-21T10:46:14.575Z,12.57
2017-06-21T10:48:43.019Z,16.43
2017-06-21T10:51:11.452Z,13.43
2017-06-21T10:53:39.896Z,14.40
2017-06-21T10:56:08.328Z,12.97
2017-06-21T10:58:36.795Z,13.90
2017-06-21T11:01:05.249Z,14.50
2017-06-21T11:03:33.655Z,13.93
2017-06-21T11:06:02.114Z,13.83
2017-06-21T11:08:30.554Z,12.53
2017-06-21T11:10:59.004Z,12.90
2017-06-21T11:13:27.452Z,13.67
2017-06-21T11:15:55.894Z,11.80
2017-06-21T11:18:24.349Z,11.50
2017-06-21T11:20:52.796Z,11.13
2017-06-21T11:23:21.251Z,11.57
2017-06-21T11:25:49.683Z,11.90
2017-06-21T11:28:18.137Z,11.33
2017-06-21T11:30:46.558Z,10.93
2017-06-21T11:33:15.068Z,10.70
2017-06-21T11:35:43.567Z,10.43
2017-06-21T11:38:11.999Z,10.40
2017-06-21T11:40:40.466Z,10.23
2017-06-21T11:43:08.902Z,9.93
2017-06-21T11:45:37.363Z,9.47
2017-06-21T11:48:05.807Z,9.60
2017-06-21T11:50:34.279Z,10.00
2017-06-21T11:53:02.730Z,11.33
2017-06-21T11:55:31.251Z,9.90
2017-06-21T11:57:59.694Z,11.97
2017-06-21T12:00:28.129Z,10.70
2017-06-21T12:02:56.599Z,11.13
2017-06-21T12:05:25.050Z,10.37
2017-06-21T12:07:53.515Z,11.00
2017-06-21T12:10:21.962Z,9.50
2017-06-21T12:12:50.379Z,9.40
2017-06-21T12:15:18.823Z,9.80
2017-06-21T12:17:47.243Z,9.60
2017-06-21T12:20:15.733Z,9.90
2017-06-21T12:22:44.147Z,11.23
2017-06-21T12:25:12.581Z,9.90
2017-06-21T12:27:41.035Z,10.03
2017-06-21T12:30:09.507Z,9.57
2017-06-21T12:32:37.960Z,10.20
2017-06-21T12:35:07.104Z,10.37
2017-06-21T12:37:35.554Z,10.90
2017-06-21T12:40:03.975Z,11.53
2017-06-21T12:42:32.425Z,10.70
2017-06-21T12:45:00.869Z,11.10
2017-06-21T12:47:29.355Z,11.00
2017-06-21T12:49:58.175Z,11.40
2017-06-21T12:52:27.875Z,11.33
2017-06-21T12:54:56.330Z,10.47
2017-06-21T12:57:25.254Z,9.97
2017-06-21T12:59:54.132Z,10.20
2017-06-21T13:02:22.569Z,10.80
2017-06-21T13:04:51.037Z,11.20
2017-06-21T13:07:19.482Z,9.70
2017-06-21T13:09:47.907Z,9.80
2017-06-21T13:12:16.343Z,10.30
2017-06-21T13:14:44.798Z,10.03
2017-06-21T13:17:13.231Z,9.73
2017-06-21T13:19:41.719Z,9.50
2017-06-21T13:22:10.187Z,13.80
2017-06-21T13:24:38.639Z,14.80
2017-06-21T13:27:08.008Z,10.77
2017-06-21T13:29:36.439Z,10.00
2017-06-21T13:32:04.868Z,10.13
2017-06-21T13:34:33.335Z,11.37
2017-06-21T13:37:02.442Z,11.70
2017-06-21T13:39:30.891Z,10.90
2017-06-21T13:41:59.718Z,10.60
2017-06-21T13:44:28.191Z,10.70
2017-06-21T13:46:56.646Z,10.90
2017-06-21T13:49:25.098Z,10.57
2017-06-21T13:51:53.567Z,10.00
2017-06-21T13:54:21.993Z,10.80
2017-06-21T13:56:50.439Z,10.80
2017-06-21T13:59:18.882Z,10.50
2017-06-21T14:01:47.330Z,11.10
2017-06-21T14:04:15.787Z,10.50
2017-06-21T14:06:44.203Z,9.93
2017-06-21T14:09:12.651Z,10.67
2017-06-21T14:11:41.084Z,10.87
2017-06-21T14:14:09.980Z,12.83
2017-06-21T14:16:38.421Z,11.50
2017-06-21T14:19:06.840Z,9.43
2017-06-21T14:21:35.109Z,10.00
2017-06-21T14:24:03.604Z,10.90
2017-06-21T14:26:32.045Z,11.13
2017-06-21T14:29:00.471Z,9.60
2017-06-21T14:31:28.927Z,10.70
2017-06-21T14:33:57.371Z,9.77
2017-06-21T14:36:25.886Z,11.03
2017-06-21T14:38:55.959Z,11.70
2017-06-21T14:41:24.368Z,9.40
2017-06-21T14:43:53.207Z,10.10
2017-06-21T14:46:21.642Z,10.00
2017-06-21T14:48:50.078Z,11.00
2017-06-21T14:51:18.520Z,9.67
2017-06-21T14:53:46.967Z,9.70
2017-06-21T14:56:15.383Z,8.97
2017-06-21T14:58:43.919Z,9.77
2017-06-21T15:01:12.363Z,9.40
2017-06-21T15:03:40.807Z,9.50
2017-06-21T15:06:09.659Z,10.20
2017-06-21T15:08:38.139Z,9.37
2017-06-21T15:11:06.575Z,9.20
2017-06-21T15:13:35.111Z,9.10
2017-06-21T15:16:03.676Z,9.23
2017-06-21T15:18:32.155Z,8.40
2017-06-21T15:21:00.582Z,8.57
2017-06-21T15:23:29.027Z,9.10
2017-06-21T15:25:57.619Z,9.33
2017-06-21T15:28:26.039Z,7.90
2017-06-21T15:30:54.490Z,8.20
2017-06-21T15:33:22.919Z,8.40
2017-06-21T15:35:51.371Z,8.57
2017-06-21T15:38:19.825Z,7.57
2017-06-21T15:40:48.324Z,7.80
2017-06-21T15:43:16.764Z,7.20
2017-06-21T15:45:45.196Z,7.50
2017-06-21T15:48:13.706Z,7.17
2017-06-21T15:50:42.132Z,7.07
2017-06-21T15:53:10.582Z,7.63
2017-06-21T15:55:39.707Z,6.47
2017-06-21T15:58:08.154Z,7.33
2017-06-21T16:00:36.598Z,7.70
2017-06-21T16:03:05.102Z,7.93
2017-06-21T16:05:33.571Z,6.43
2017-06-21T16:08:02.007Z,6.80
2017-06-21T16:10:30.679Z,6.70
2017-06-21T16:12:59.171Z,7.90
2017-06-21T16:15:27.672Z,7.07
2017-06-21T16:17:56.110Z,6.87
2017-06-21T16:20:24.538Z,6.33
2017-06-21T16:22:52.980Z,6.90
2017-06-21T16:25:21.401Z,6.60
2017-06-21T16:27:49.866Z,7.10
2017-06-21T16:30:18.303Z,5.67
2017-06-21T16:32:47.136Z,6.83
2017-06-21T16:35:15.606Z,6.70
2017-06-21T16:37:44.056Z,6.70
2017-06-21T16:40:12.508Z,6.63
2017-06-21T16:42:40.962Z,6.33
2017-06-21T16:45:09.399Z,7.53
2017-06-21T16:47:37.846Z,7.37
2017-06-21T16:50:06.287Z,7.33
2017-06-21T16:52:34.715Z,7.37
2017-06-21T16:55:03.327Z,6.50
2017-06-21T16:57:31.768Z,7.50
2017-06-21T17:00:00.244Z,6.70
2017-06-21T17:02:28.683Z,7.17
2017-06-21T17:04:57.204Z,7.40
2017-06-21T17:07:26.027Z,6.80
2017-06-21T17:09:54.502Z,7.10
2017-06-21T17:12:22.923Z,6.53
2017-06-21T17:14:51.472Z,7.40
2017-06-21T17:17:20.591Z,6.63
2017-06-21T17:19:49.045Z,6.57
2017-06-21T17:22:17.471Z,6.37
2017-06-21T17:24:45.972Z,6.53
2017-06-21T17:27:14.413Z,6.37
2017-06-21T17:29:42.834Z,6.00
2017-06-21T17:32:11.301Z,6.07
2017-06-21T17:34:39.743Z,5.83
2017-06-21T17:37:08.187Z,7.40
2017-06-21T17:39:36.643Z,7.23
2017-06-21T17:42:05.083Z,6.80
2017-06-21T17:44:33.552Z,7.43
2017-06-21T17:47:02.019Z,7.60
2017-06-21T17:49:31.217Z,7.03
2017-06-21T17:51:59.686Z,7.60
2017-06-21T17:54:28.155Z,7.60
2017-06-21T17:56:56.618Z,7.90
2017-06-21T17:59:25.050Z,7.37
2017-06-21T18:01:53.499Z,7.27
2017-06-21T18:04:21.968Z,7.87
2017-06-21T18:06:50.424Z,8.20
2017-06-21T18:09:19.946Z,7.90
2017-06-21T18:11:48.385Z,7.60
2017-06-21T18:14:16.844Z,7.80
2017-06-21T18:16:45.253Z,7.73
2017-06-21T18:19:13.686Z,8.47
2017-06-21T18:21:42.172Z,7.60
2017-06-21T18:24:11.363Z,11.17
2017-06-21T18:26:40.194Z,8.73
2017-06-21T18:29:09.036Z,8.07
2017-06-21T18:31:37.563Z,7.23
2017-06-21T18:34:06.124Z,8.37
2017-06-21T18:36:34.977Z,8.10
2017-06-21T18:39:03.167Z,7.77
2017-06-21T18:41:31.991Z,8.77
2017-06-21T18:44:00.434Z,9.13
2017-06-21T18:46:28.908Z,8.33
2017-06-21T18:48:57.128Z,7.70
2017-06-21T18:51:25.585Z,7.60
2017-06-21T18:53:54.772Z,8.00
2017-06-21T18:56:23.227Z,8.20
2017-06-21T18:58:51.662Z,7.93
2017-06-21T19:01:20.091Z,7.80
2017-06-21T19:03:48.538Z,7.93
2017-06-21T19:06:16.971Z,7.80
2017-06-21T19:08:45.435Z,9.23
2017-06-21T19:11:13.890Z,8.83
2017-06-21T19:13:42.335Z,9.30
2017-06-21T19:16:10.779Z,8.20
2017-06-21T19:18:39.273Z,8.63
2017-06-21T19:21:07.703Z,7.47
2017-06-21T19:23:36.155Z,8.30
2017-06-21T19:26:04.603Z,8.63
2017-06-21T19:28:33.043Z,10.00
2017-06-21T19:31:01.894Z,8.83
2017-06-21T19:33:30.337Z,11.50
2017-06-21T19:35:59.163Z,9.07
2017-06-21T19:38:28.004Z,9.67
2017-06-21T19:40:57.211Z,10.03
2017-06-21T19:43:26.076Z,10.63
2017-06-21T19:45:55.277Z,10.10
2017-06-21T19:48:24.156Z,16.27
2017-06-21T19:50:52.990Z,9.80
2017-06-21T19:53:22.194Z,16.10
2017-06-21T19:55:51.040Z,10.60
2017-06-21T19:58:20.240Z,10.97
2017-06-21T20:00:48.695Z,9.43
2017-06-21T20:03:17.127Z,9.33
2017-06-21T20:05:46.003Z,11.93
2017-06-21T20:08:15.223Z,9.90
2017-06-21T20:10:44.078Z,10.27
2017-06-21T20:13:12.541Z,9.13
2017-06-21T20:15:42.087Z,9.93
2017-06-21T20:18:10.532Z,9.90
2017-06-21T20:20:39.031Z,10.03
2017-06-21T20:23:08.219Z,10.00
2017-06-21T20:25:37.048Z,10.00
2017-06-21T20:28:06.267Z,11.00
2017-06-21T20:30:35.139Z,10.63
2017-06-21T20:33:04.047Z,10.30
2017-06-21T20:35:32.487Z,10.00
2017-06-21T20:38:00.955Z,10.67
2017-06-21T20:40:29.395Z,11.93
2017-06-21T20:42:58.338Z,9.67
2017-06-21T20:45:27.172Z,10.57
2017-06-21T20:47:55.997Z,10.40
2017-06-21T20:50:24.493Z,10.87
2017-06-21T20:52:53.724Z,9.77
2017-06-21T20:55:22.187Z,9.53
2017-06-21T20:57:51.007Z,10.60
2017-06-21T21:00:20.232Z,10.97
2017-06-21T21:02:48.655Z,10.20
2017-06-21T21:05:17.107Z,10.97
2017-06-21T21:07:46.026Z,10.97
2017-06-21T21:10:14.554Z,11.73
2017-06-21T21:12:43.007Z,11.37
2017-06-21T21:15:12.266Z,12.20
2017-06-21T21:17:41.089Z,11.93
2017-06-21T21:20:10.299Z,12.60
2017-06-21T21:22:39.125Z,11.60
2017-06-21T21:25:07.970Z,13.07
2017-06-21T21:27:37.191Z,12.13
2017-06-21T21:30:06.039Z,11.70
2017-06-21T21:32:35.239Z,12.27
2017-06-21T21:35:04.063Z,12.37
2017-06-21T21:37:33.280Z,11.93
2017-06-21T21:40:02.128Z,11.73
2017-06-21T21:42:30.963Z,11.27
2017-06-21T21:45:00.166Z,11.10
2017-06-21T21:47:29.045Z,12.50
2017-06-21T21:49:58.299Z,11.53
2017-06-21T21:52:27.146Z,12.57
2017-06-21T21:54:56.005Z,12.13
2017-06-21T21:57:24.432Z,12.93
2017-06-21T21:59:53.315Z,12.47
2017-06-21T22:02:22.531Z,12.77
2017-06-21T22:04:51.355Z,13.20
2017-06-21T22:07:20.195Z,11.90
2017-06-21T22:09:48.624Z,12.03
2017-06-21T22:12:17.064Z,13.00
2017-06-21T22:14:46.267Z,13.13
2017-06-21T22:17:15.122Z,12.60
2017-06-21T22:19:44.312Z,13.23
2017-06-21T22:22:13.151Z,12.97
2017-06-21T22:24:41.590Z,12.80
2017-06-21T22:27:10.014Z,11.70
2017-06-21T22:29:38.472Z,12.83
2017-06-21T22:32:06.902Z,11.67
2017-06-21T22:34:35.738Z,13.03
2017-06-21T22:37:04.202Z,12.17
2017-06-21T22:39:33.034Z,14.07
2017-06-21T22:42:01.903Z,12.80
2017-06-21T22:44:30.728Z,14.37
2017-06-21T22:46:59.191Z,13.77
2017-06-21T22:49:27.635Z,14.33
2017-06-21T22:51:56.456Z,12.27
2017-06-21T22:54:25.670Z,13.63
2017-06-21T22:56:54.107Z,14.20
2017-06-21T22:59:22.555Z,13.63
2017-06-21T23:01:51.011Z,13.27
2017-06-21T23:04:19.454Z,14.27
2017-06-21T23:06:48.027Z,13.10
2017-06-21T23:09:16.461Z,14.00
2017-06-21T23:11:44.922Z,13.30
2017-06-21T23:14:14.220Z,13.27
2017-06-21T23:16:43.420Z,14.13
2017-06-21T23:19:11.863Z,14.13
2017-06-21T23:21:40.303Z,12.83
2017-06-21T23:24:09.499Z,12.63
2017-06-21T23:26:38.702Z,14.60
2017-06-21T23:29:07.188Z,13.83
2017-06-21T23:31:35.616Z,12.93
2017-06-21T23:34:04.262Z,13.30
2017-06-21T23:36:32.701Z,12.93
2017-06-21T23:39:01.127Z,13.60
2017-06-21T23:41:29.567Z,13.77
2017-06-21T23:43:58.081Z,14.30
2017-06-21T23:46:26.532Z,12.93
2017-06-21T23:48:54.966Z,14.87
2017-06-21T23:51:23.395Z,13.73
2017-06-21T23:53:51.835Z,13.90
2017-06-21T23:56:20.279Z,13.03
2017-06-21T23:58:49.500Z,14.53
